createdAt,value
2023-05-10T00:00:14.624Z,46.09
2023-05-10T00:02:42.725Z,46.00
2023-05-10T00:05:10.372Z,46.28
2023-05-10T00:07:37.696Z,46.33
2023-05-10T00:10:05.821Z,46.36
2023-05-10T00:12:33.284Z,46.30
2023-05-10T00:15:00.691Z,46.46
2023-05-10T00:17:28.558Z,46.08
2023-05-10T00:19:55.963Z,46.16
2023-05-10T00:22:23.413Z,46.14
2023-05-10T00:24:51.067Z,46.59
2023-05-10T00:27:18.475Z,46.64
2023-05-10T00:29:45.924Z,48.10
2023-05-10T00:32:14.928Z,47.64
2023-05-10T00:34:42.526Z,48.10
2023-05-10T00:37:09.982Z,48.13
2023-05-10T00:39:37.657Z,48.75
2023-05-10T00:42:05.536Z,48.41
2023-05-10T00:44:33.228Z,47.92
2023-05-10T00:47:00.955Z,47.86
2023-05-10T00:49:28.615Z,47.51
2023-05-10T00:51:56.025Z,47.51
2023-05-10T00:54:23.690Z,47.70
2023-05-10T00:56:52.717Z,48.27
2023-05-10T00:59:20.360Z,48.10
2023-05-10T01:01:48.448Z,47.87
2023-05-10T01:04:16.405Z,47.86
2023-05-10T01:06:44.033Z,48.26
2023-05-10T01:09:12.751Z,48.42
2023-05-10T01:11:41.106Z,47.84
2023-05-10T01:14:08.806Z,48.04
2023-05-10T01:16:40.285Z,48.13
2023-05-10T01:19:32.183Z,47.60
2023-05-10T01:22:07.634Z,47.42
2023-05-10T01:24:40.953Z,47.55
2023-05-10T01:27:14.601Z,47.59
2023-05-10T01:30:01.406Z,47.83
2023-05-10T01:32:40.289Z,47.83
2023-05-10T01:35:12.031Z,47.95
2023-05-10T01:37:58.091Z,48.04
2023-05-10T01:40:31.576Z,48.10
2023-05-10T01:43:09.572Z,48.05
2023-05-10T01:46:06.177Z,47.93
2023-05-10T01:48:34.055Z,47.74
2023-05-10T01:51:01.775Z,48.21
2023-05-10T01:53:29.345Z,47.97
2023-05-10T01:55:57.557Z,47.99
2023-05-10T01:58:29.485Z,48.01
2023-05-10T02:00:59.307Z,48.26
2023-05-10T02:03:28.317Z,48.35
2023-05-10T02:05:57.079Z,49.85
2023-05-10T02:08:25.145Z,48.45
2023-05-10T02:10:55.595Z,48.60
2023-05-10T02:13:24.751Z,48.14
2023-05-10T02:15:52.462Z,48.12
2023-05-10T02:18:20.446Z,48.23
2023-05-10T02:20:48.318Z,48.35
2023-05-10T02:23:18.007Z,48.54
2023-05-10T02:25:46.016Z,48.80
2023-05-10T02:28:15.507Z,49.33
2023-05-10T02:30:43.587Z,48.95
2023-05-10T02:33:12.320Z,48.41
2023-05-10T02:35:40.024Z,48.54
2023-05-10T02:38:09.836Z,48.69
2023-05-10T02:40:37.691Z,50.18
2023-05-10T02:43:05.290Z,49.18
2023-05-10T02:45:33.755Z,49.38
2023-05-10T02:48:01.610Z,48.86
2023-05-10T02:50:29.736Z,48.65
2023-05-10T02:53:00.953Z,49.11
2023-05-10T02:55:38.111Z,49.77
2023-05-10T02:58:05.884Z,49.66
2023-05-10T03:00:33.890Z,48.90
2023-05-10T03:03:01.435Z,49.13
2023-05-10T03:05:29.258Z,48.77
2023-05-10T03:07:57.945Z,48.68
2023-05-10T03:10:30.895Z,49.05
2023-05-10T03:13:01.504Z,49.70
2023-05-10T03:15:47.657Z,49.63
2023-05-10T03:18:43.290Z,50.39
2023-05-10T03:21:13.434Z,50.55
2023-05-10T03:23:47.529Z,49.93
2023-05-10T03:26:21.396Z,50.35
2023-05-10T03:28:49.803Z,51.05
2023-05-10T03:31:18.411Z,50.34
2023-05-10T03:33:53.271Z,49.84
2023-05-10T03:36:22.014Z,50.02
2023-05-10T03:38:49.441Z,50.34
2023-05-10T03:41:16.874Z,50.43
2023-05-10T03:43:44.610Z,49.19
2023-05-10T03:46:12.068Z,48.70
2023-05-10T03:48:39.546Z,48.79
2023-05-10T03:51:07.663Z,48.88
2023-05-10T03:53:35.038Z,48.83
2023-05-10T03:56:02.496Z,48.69
2023-05-10T03:58:30.173Z,48.94
2023-05-10T04:00:57.618Z,49.29
2023-05-10T04:03:26.914Z,49.69
2023-05-10T04:06:04.020Z,49.34
2023-05-10T04:08:32.498Z,49.12
2023-05-10T04:11:09.930Z,49.24
2023-05-10T04:13:38.272Z,48.58
2023-05-10T04:16:06.248Z,49.07
2023-05-10T04:18:33.807Z,49.13
2023-05-10T04:21:01.640Z,49.86
2023-05-10T04:23:29.085Z,48.63
2023-05-10T04:26:01.582Z,49.37
2023-05-10T04:28:29.421Z,48.73
2023-05-10T04:31:10.536Z,48.67
2023-05-10T04:33:38.478Z,48.70
2023-05-10T04:36:06.316Z,49.23
2023-05-10T04:38:33.702Z,49.64
2023-05-10T04:41:09.301Z,49.09
2023-05-10T04:43:37.161Z,48.77
2023-05-10T04:46:05.310Z,48.99
2023-05-10T04:48:32.834Z,47.82
2023-05-10T04:51:00.646Z,48.33
2023-05-10T04:53:28.356Z,47.97
2023-05-10T04:55:55.752Z,48.56
2023-05-10T04:58:23.133Z,48.17
2023-05-10T05:00:50.974Z,48.97
2023-05-10T05:03:18.440Z,49.55
2023-05-10T05:05:46.029Z,49.26
2023-05-10T05:08:14.251Z,49.13
2023-05-10T05:10:41.641Z,48.25
2023-05-10T05:13:09.045Z,47.81
2023-05-10T05:15:36.735Z,47.33
2023-05-10T05:18:04.268Z,47.44
2023-05-10T05:20:34.313Z,47.55
2023-05-10T05:23:02.675Z,47.23
2023-05-10T05:25:30.141Z,47.15
2023-05-10T05:27:57.583Z,46.62
2023-05-10T05:30:25.302Z,46.78
2023-05-10T05:32:53.461Z,48.49
2023-05-10T05:35:20.918Z,47.99
2023-05-10T05:37:48.651Z,48.34
2023-05-10T05:40:16.125Z,49.77
2023-05-10T05:42:43.565Z,48.70
2023-05-10T05:45:14.025Z,49.18
2023-05-10T05:47:41.861Z,50.90
2023-05-10T05:50:09.835Z,50.62
2023-05-10T05:52:37.544Z,50.96
2023-05-10T05:55:05.408Z,50.90
2023-05-10T05:57:32.774Z,53.27
2023-05-10T06:00:00.588Z,51.30
2023-05-10T06:02:28.116Z,49.08
2023-05-10T06:04:55.978Z,50.68
2023-05-10T06:07:23.405Z,50.04
2023-05-10T06:09:51.033Z,48.36
2023-05-10T06:12:18.717Z,48.57
2023-05-10T06:14:46.072Z,47.28
2023-05-10T06:17:13.561Z,46.57
2023-05-10T06:19:41.199Z,46.30
2023-05-10T06:22:08.871Z,46.85
2023-05-10T06:24:36.299Z,47.17
2023-05-10T06:27:05.101Z,46.61
2023-05-10T06:29:32.487Z,46.01
2023-05-10T06:32:00.000Z,46.25
2023-05-10T06:34:27.661Z,45.31
2023-05-10T06:36:55.071Z,46.13
2023-05-10T06:39:22.455Z,45.66
2023-05-10T06:41:50.268Z,46.38
2023-05-10T06:44:17.623Z,46.07
2023-05-10T06:46:45.065Z,46.19
2023-05-10T06:49:12.945Z,47.27
2023-05-10T06:51:41.162Z,45.63
2023-05-10T06:54:08.532Z,46.38
2023-05-10T06:56:36.386Z,45.75
2023-05-10T06:59:04.055Z,45.77
2023-05-10T07:01:31.529Z,46.05
2023-05-10T07:03:59.192Z,44.88
2023-05-10T07:06:33.424Z,45.54
2023-05-10T07:09:02.080Z,45.96
2023-05-10T07:11:29.722Z,46.41
2023-05-10T07:13:57.127Z,45.28
2023-05-10T07:16:24.788Z,44.57
2023-05-10T07:18:52.243Z,46.21
2023-05-10T07:21:19.654Z,46.95
2023-05-10T07:23:47.347Z,46.76
2023-05-10T07:26:15.889Z,45.57
2023-05-10T07:28:43.335Z,45.56
2023-05-10T07:31:11.011Z,45.15
2023-05-10T07:33:38.537Z,44.62
2023-05-10T07:36:05.977Z,44.61
2023-05-10T07:38:33.797Z,44.80
2023-05-10T07:41:01.221Z,44.04
2023-05-10T07:43:28.836Z,45.42
2023-05-10T07:45:58.583Z,44.99
2023-05-10T07:48:26.107Z,45.54
2023-05-10T07:50:53.479Z,45.05
2023-05-10T07:53:21.765Z,44.16
2023-05-10T07:55:52.962Z,45.20
2023-05-10T07:58:20.645Z,43.49
2023-05-10T08:00:48.190Z,45.34
2023-05-10T08:03:16.268Z,44.10
2023-05-10T08:05:43.793Z,43.13
2023-05-10T08:08:11.236Z,43.89
2023-05-10T08:10:38.941Z,44.75
2023-05-10T08:13:07.097Z,44.61
2023-05-10T08:15:34.609Z,45.38
2023-05-10T08:18:02.368Z,44.11
2023-05-10T08:20:29.861Z,44.16
2023-05-10T08:22:57.326Z,43.86
2023-05-10T08:25:25.160Z,44.43
2023-05-10T08:27:52.513Z,43.37
2023-05-10T08:30:19.990Z,44.07
2023-05-10T08:32:47.798Z,43.85
2023-05-10T08:35:16.713Z,42.82
2023-05-10T08:37:44.289Z,43.55
2023-05-10T08:40:12.906Z,42.52
2023-05-10T08:42:41.695Z,42.02
2023-05-10T08:45:09.873Z,42.98
2023-05-10T08:47:39.151Z,41.90
2023-05-10T08:50:08.053Z,40.80
2023-05-10T08:52:37.757Z,41.60
2023-05-10T08:55:05.715Z,41.73
2023-05-10T08:57:33.068Z,42.62
2023-05-10T09:00:01.809Z,40.54
2023-05-10T09:02:30.197Z,40.71
2023-05-10T09:04:57.831Z,39.41
2023-05-10T09:07:25.927Z,41.20
2023-05-10T09:09:54.405Z,40.21
2023-05-10T09:12:21.833Z,38.73
2023-05-10T09:14:49.801Z,38.62
2023-05-10T09:17:17.696Z,39.51
2023-05-10T09:19:46.356Z,38.55
2023-05-10T09:22:13.857Z,38.20
2023-05-10T09:24:46.152Z,36.82
2023-05-10T09:27:13.628Z,38.73
2023-05-10T09:29:43.098Z,38.48
2023-05-10T09:32:10.497Z,38.34
2023-05-10T09:34:40.965Z,38.80
2023-05-10T09:37:09.253Z,39.05
2023-05-10T09:39:37.980Z,39.04
2023-05-10T09:42:07.368Z,36.64
2023-05-10T09:44:35.153Z,37.65
2023-05-10T09:47:03.161Z,38.96
2023-05-10T09:49:31.138Z,38.37
2023-05-10T09:52:06.277Z,38.17
2023-05-10T09:54:34.919Z,38.33
2023-05-10T09:57:03.004Z,38.12
2023-05-10T09:59:30.593Z,37.63
2023-05-10T10:02:01.326Z,37.66
2023-05-10T10:04:29.622Z,37.75
2023-05-10T10:07:04.605Z,36.72
2023-05-10T10:09:33.290Z,36.97
2023-05-10T10:12:01.568Z,36.34
2023-05-10T10:14:29.924Z,37.12
2023-05-10T10:17:07.703Z,36.88
2023-05-10T10:19:36.864Z,37.26
2023-05-10T10:22:05.247Z,37.17
2023-05-10T10:24:32.944Z,37.25
2023-05-10T10:27:45.387Z,36.79
2023-05-10T10:30:31.628Z,37.41
2023-05-10T10:33:29.656Z,38.06
2023-05-10T10:36:00.241Z,37.73
2023-05-10T10:39:00.455Z,37.11
2023-05-10T10:41:37.151Z,37.05
2023-05-10T10:44:23.318Z,38.40
2023-05-10T10:47:30.837Z,37.92
2023-05-10T10:50:01.677Z,38.08
2023-05-10T10:52:34.406Z,38.31
2023-05-10T10:55:05.132Z,37.42
2023-05-10T10:57:43.621Z,37.98
2023-05-10T11:03:10.219Z,36.03
2023-05-10T11:05:50.426Z,36.12
2023-05-10T11:08:27.136Z,36.61
2023-05-10T11:11:00.868Z,35.13
2023-05-10T11:13:33.819Z,35.83
2023-05-10T11:16:12.343Z,34.99
2023-05-10T11:18:40.270Z,35.44
2023-05-10T11:21:11.723Z,34.39
2023-05-10T11:23:48.488Z,35.29
2023-05-10T11:26:16.438Z,35.93
2023-05-10T11:28:44.946Z,36.02
2023-05-10T11:31:17.982Z,35.86
2023-05-10T11:33:53.727Z,35.23
2023-05-10T11:36:26.226Z,35.21
2023-05-10T11:38:54.622Z,36.05
2023-05-10T11:41:23.467Z,37.19
2023-05-10T11:43:52.329Z,36.01
2023-05-10T11:46:25.464Z,35.85
2023-05-10T11:48:55.078Z,35.44
2023-05-10T11:51:24.313Z,35.41
2023-05-10T11:53:56.760Z,34.97
2023-05-10T11:56:24.782Z,36.30
2023-05-10T11:58:57.844Z,35.77
2023-05-10T12:01:27.299Z,34.27
2023-05-10T12:04:00.020Z,34.59
2023-05-10T12:06:29.900Z,35.64
2023-05-10T12:08:57.866Z,35.78
2023-05-10T12:11:26.828Z,35.84
2023-05-10T12:13:55.014Z,35.28
2023-05-10T12:16:24.776Z,34.91
2023-05-10T12:18:53.437Z,35.39
2023-05-10T12:21:22.143Z,34.88
2023-05-10T12:23:52.284Z,35.58
2023-05-10T12:26:22.329Z,35.62
2023-05-10T12:28:49.956Z,35.57
2023-05-10T12:31:17.432Z,34.72
2023-05-10T12:33:45.628Z,35.06
2023-05-10T12:36:15.396Z,35.33
2023-05-10T12:38:44.671Z,35.72
2023-05-10T12:41:13.570Z,35.12
2023-05-10T12:43:41.769Z,36.19
2023-05-10T12:46:10.476Z,36.25
2023-05-10T12:48:38.954Z,35.79
2023-05-10T12:51:09.702Z,35.79
2023-05-10T12:53:37.683Z,34.99
2023-05-10T12:56:05.485Z,35.48
2023-05-10T12:58:36.011Z,35.57
2023-05-10T13:01:04.212Z,35.92
2023-05-10T13:03:31.659Z,34.97
2023-05-10T13:05:59.316Z,34.86
2023-05-10T13:08:26.935Z,34.41
2023-05-10T13:10:54.270Z,34.36
2023-05-10T13:13:21.899Z,34.27
2023-05-10T13:15:49.263Z,35.68
2023-05-10T13:18:16.816Z,34.95
2023-05-10T13:20:45.292Z,34.21
2023-05-10T13:23:12.691Z,33.69
2023-05-10T13:25:40.235Z,34.15
2023-05-10T13:28:07.998Z,34.03
2023-05-10T13:30:35.313Z,33.43
2023-05-10T13:33:02.818Z,33.00
2023-05-10T13:35:30.827Z,34.30
2023-05-10T13:37:58.647Z,34.21
2023-05-10T13:40:26.071Z,33.72
2023-05-10T13:42:54.006Z,33.76
2023-05-10T13:45:21.845Z,33.92
2023-05-10T13:47:49.257Z,32.98
2023-05-10T13:50:17.879Z,33.63
2023-05-10T13:52:45.456Z,33.81
2023-05-10T13:56:10.305Z,33.09
2023-05-10T13:58:58.088Z,33.31
2023-05-10T14:01:25.804Z,32.69
2023-05-10T14:03:53.580Z,32.90
2023-05-10T14:06:21.418Z,33.12
2023-05-10T14:08:49.070Z,33.43
2023-05-10T14:11:16.726Z,33.19
2023-05-10T14:13:44.087Z,33.18
2023-05-10T14:16:11.695Z,31.81
2023-05-10T14:18:39.370Z,30.63
2023-05-10T14:21:07.172Z,30.66
2023-05-10T14:23:34.523Z,30.25
2023-05-10T14:26:02.421Z,29.64
2023-05-10T14:28:30.244Z,30.61
2023-05-10T14:30:58.129Z,30.25
2023-05-10T14:33:26.041Z,29.94
2023-05-10T14:35:53.418Z,29.75
2023-05-10T14:38:20.905Z,28.90
2023-05-10T14:40:48.553Z,28.40
2023-05-10T14:43:16.029Z,28.12
2023-05-10T14:45:43.430Z,28.77
2023-05-10T14:48:16.195Z,28.56
2023-05-10T14:50:43.579Z,27.82
2023-05-10T14:53:36.199Z,28.22
2023-05-10T14:56:03.985Z,29.22
2023-05-10T14:58:33.993Z,28.97
2023-05-10T15:01:01.821Z,28.33
2023-05-10T15:03:29.961Z,28.70
2023-05-10T15:05:58.902Z,29.75
2023-05-10T15:08:26.351Z,30.11
2023-05-10T15:10:56.377Z,29.33
2023-05-10T15:13:24.056Z,28.41
2023-05-10T15:15:51.588Z,30.26
2023-05-10T15:18:19.089Z,29.35
2023-05-10T15:20:46.690Z,30.19
2023-05-10T15:23:14.237Z,30.84
2023-05-10T15:25:41.756Z,30.68
2023-05-10T15:28:09.386Z,31.04
2023-05-10T15:30:36.797Z,30.76
2023-05-10T15:33:04.234Z,30.70
2023-05-10T15:35:32.632Z,31.44
2023-05-10T15:37:59.960Z,31.39
2023-05-10T15:40:27.373Z,31.94
2023-05-10T15:42:55.136Z,31.77
2023-05-10T15:45:22.718Z,31.87
2023-05-10T15:47:50.169Z,31.90
2023-05-10T15:50:17.882Z,31.45
2023-05-10T15:52:45.345Z,30.86
2023-05-10T15:55:13.450Z,30.71
2023-05-10T15:57:42.560Z,30.93
2023-05-10T16:00:11.309Z,31.00
2023-05-10T16:02:40.703Z,30.54
2023-05-10T16:05:09.708Z,30.69
2023-05-10T16:07:37.162Z,30.15
2023-05-10T16:10:06.592Z,31.47
2023-05-10T16:12:34.676Z,30.94
2023-05-10T16:15:02.124Z,31.09
2023-05-10T16:17:29.593Z,31.35
2023-05-10T16:19:57.379Z,31.95
2023-05-10T16:22:27.315Z,31.27
2023-05-10T16:24:54.778Z,31.58
2023-05-10T16:27:22.508Z,31.96
2023-05-10T16:29:50.065Z,31.68
2023-05-10T16:32:17.552Z,31.18
2023-05-10T16:34:45.527Z,30.82
2023-05-10T16:37:12.988Z,30.69
2023-05-10T16:39:40.462Z,30.92
2023-05-10T16:42:08.172Z,30.85
2023-05-10T16:44:36.472Z,31.24
2023-05-10T16:47:03.942Z,31.34
2023-05-10T16:49:31.664Z,31.36
2023-05-10T16:51:59.923Z,30.94
2023-05-10T16:54:28.814Z,30.95
2023-05-10T16:56:56.472Z,31.47
2023-05-10T16:59:23.922Z,31.53
2023-05-10T17:01:53.192Z,31.29
2023-05-10T17:04:21.142Z,30.94
2023-05-10T17:06:48.563Z,31.06
2023-05-10T17:09:15.969Z,31.23
2023-05-10T17:11:43.702Z,31.27
2023-05-10T17:14:11.382Z,31.83
2023-05-10T17:16:39.010Z,32.17
2023-05-10T17:19:06.966Z,32.45
2023-05-10T17:21:34.544Z,32.96
2023-05-10T17:24:02.035Z,32.89
2023-05-10T17:26:30.146Z,33.23
2023-05-10T17:28:58.619Z,33.24
2023-05-10T17:31:26.063Z,33.78
2023-05-10T17:33:53.811Z,34.64
2023-05-10T17:36:21.218Z,34.48
2023-05-10T17:38:49.011Z,34.39
2023-05-10T17:41:17.170Z,35.05
2023-05-10T17:43:44.750Z,35.03
2023-05-10T17:46:12.977Z,35.21
2023-05-10T17:48:41.865Z,34.92
2023-05-10T17:51:09.555Z,36.10
2023-05-10T17:53:36.904Z,35.51
2023-05-10T17:56:04.748Z,36.39
2023-05-10T17:58:32.161Z,36.45
2023-05-10T18:00:59.557Z,36.44
2023-05-10T18:03:27.225Z,36.85
2023-05-10T18:05:55.352Z,37.57
2023-05-10T18:08:26.728Z,37.11
2023-05-10T18:10:54.430Z,36.66
2023-05-10T18:13:22.294Z,37.23
2023-05-10T18:15:49.893Z,37.41
2023-05-10T18:18:17.754Z,37.17
2023-05-10T18:20:46.379Z,37.41
2023-05-10T18:23:15.337Z,37.06
2023-05-10T18:25:43.164Z,36.63
2023-05-10T18:28:10.755Z,36.98
2023-05-10T18:30:38.453Z,37.47
2023-05-10T18:33:06.750Z,37.48
2023-05-10T18:35:36.801Z,37.42
2023-05-10T18:38:04.464Z,37.46
2023-05-10T18:40:32.359Z,37.93
2023-05-10T18:43:00.123Z,37.88
2023-05-10T18:45:27.509Z,37.70
2023-05-10T18:47:55.533Z,38.36
2023-05-10T18:50:22.997Z,38.30
2023-05-10T18:52:50.689Z,38.18
2023-05-10T18:55:18.723Z,38.15
2023-05-10T18:57:46.726Z,37.90
2023-05-10T19:00:14.341Z,38.00
2023-05-10T19:02:42.103Z,37.78
2023-05-10T19:05:09.932Z,37.85
2023-05-10T19:07:37.531Z,37.91
2023-05-10T19:10:05.799Z,37.82
2023-05-10T19:12:33.402Z,37.75
2023-05-10T19:15:01.163Z,37.89
2023-05-10T19:17:29.029Z,37.68
2023-05-10T19:19:57.657Z,37.92
2023-05-10T19:22:35.300Z,37.30
2023-05-10T19:25:05.879Z,37.19
2023-05-10T19:27:34.114Z,37.34
2023-05-10T19:30:01.746Z,37.04
2023-05-10T19:32:30.048Z,37.10
2023-05-10T19:34:57.645Z,37.28
2023-05-10T19:37:25.632Z,37.02
2023-05-10T19:39:53.428Z,37.32
2023-05-10T19:42:21.179Z,37.32
2023-05-10T19:44:48.893Z,36.96
2023-05-10T19:47:16.995Z,36.80
2023-05-10T19:49:44.688Z,36.82
2023-05-10T19:52:12.450Z,36.71
2023-05-10T19:54:40.164Z,36.52
2023-05-10T19:57:07.745Z,36.19
2023-05-10T19:59:35.473Z,36.12
2023-05-10T20:02:03.190Z,36.17
2023-05-10T20:04:31.389Z,36.16
2023-05-10T20:06:58.942Z,36.08
2023-05-10T20:09:26.722Z,35.88
2023-05-10T20:11:54.461Z,36.09
2023-05-10T20:14:22.344Z,36.27
2023-05-10T20:16:49.919Z,35.87
2023-05-10T20:19:17.935Z,35.68
2023-05-10T20:21:45.392Z,35.37
2023-05-10T20:24:12.966Z,35.29
2023-05-10T20:26:41.035Z,35.56
2023-05-10T20:29:09.404Z,35.48
2023-05-10T20:31:37.165Z,35.40
2023-05-10T20:34:04.887Z,36.05
2023-05-10T20:36:32.607Z,35.98
2023-05-10T20:39:00.055Z,36.25
2023-05-10T20:41:27.978Z,36.99
2023-05-10T20:43:55.401Z,37.31
2023-05-10T20:46:23.614Z,37.20
2023-05-10T20:48:51.376Z,37.19
2023-05-10T20:51:18.848Z,37.85
2023-05-10T20:53:46.220Z,37.41
2023-05-10T20:56:13.905Z,37.76
2023-05-10T20:58:41.314Z,37.88
2023-05-10T21:01:08.893Z,38.17
2023-05-10T21:03:36.604Z,38.42
2023-05-10T21:06:04.050Z,38.83
2023-05-10T21:08:31.448Z,38.58
2023-05-10T21:10:59.358Z,38.71
2023-05-10T21:13:26.775Z,38.39
2023-05-10T21:15:54.239Z,38.17
2023-05-10T21:18:22.205Z,38.61
2023-05-10T21:20:49.753Z,38.43
2023-05-10T21:23:17.325Z,37.98
2023-05-10T21:25:44.989Z,37.71
2023-05-10T21:28:12.365Z,37.67
2023-05-10T21:30:39.756Z,37.39
2023-05-10T21:33:07.532Z,37.36
2023-05-10T21:35:34.924Z,37.03
2023-05-10T21:38:02.354Z,37.05
2023-05-10T21:40:30.047Z,37.01
2023-05-10T21:42:57.832Z,37.04
2023-05-10T21:45:25.323Z,36.99
2023-05-10T21:47:53.013Z,36.98
2023-05-10T21:50:20.532Z,36.78
2023-05-10T21:52:48.163Z,36.81
2023-05-10T21:55:16.040Z,36.99
2023-05-10T21:57:44.809Z,37.03
2023-05-10T22:00:13.575Z,37.82
2023-05-10T22:02:41.265Z,37.40
2023-05-10T22:05:09.114Z,36.93
2023-05-10T22:07:36.634Z,36.80
2023-05-10T22:10:04.552Z,36.84
2023-05-10T22:12:31.920Z,37.05
2023-05-10T22:15:09.500Z,36.99
2023-05-10T22:17:39.917Z,36.67
2023-05-10T22:20:08.960Z,36.39
2023-05-10T22:22:36.820Z,36.32
2023-05-10T22:25:08.618Z,36.29
2023-05-10T22:27:36.010Z,35.85
2023-05-10T22:30:04.100Z,35.10
2023-05-10T22:32:33.854Z,35.47
2023-05-10T22:35:01.241Z,35.51
2023-05-10T22:37:28.953Z,36.18
2023-05-10T22:39:56.634Z,36.20
2023-05-10T22:42:23.993Z,35.63
2023-05-10T22:44:51.411Z,36.22
2023-05-10T22:47:19.059Z,36.15
2023-05-10T22:49:47.048Z,35.82
2023-05-10T22:52:14.426Z,35.81
2023-05-10T22:54:42.039Z,36.01
2023-05-10T22:57:09.494Z,35.98
2023-05-10T22:59:36.915Z,35.59
2023-05-10T23:02:04.733Z,36.06
2023-05-10T23:04:32.628Z,36.06
2023-05-10T23:07:00.057Z,36.31
2023-05-10T23:09:27.695Z,36.23
2023-05-10T23:11:55.096Z,36.37
2023-05-10T23:14:23.515Z,35.75
2023-05-10T23:16:51.214Z,35.87
2023-05-10T23:19:19.167Z,36.05
2023-05-10T23:21:47.158Z,35.98
2023-05-10T23:24:15.059Z,35.86
2023-05-10T23:26:45.193Z,35.78
2023-05-10T23:29:12.639Z,35.67
2023-05-10T23:31:45.453Z,35.71
2023-05-10T23:34:13.003Z,36.02
2023-05-10T23:36:40.901Z,35.69
2023-05-10T23:39:08.413Z,35.94
2023-05-10T23:41:35.799Z,35.87
2023-05-10T23:44:03.523Z,36.06
2023-05-10T23:46:30.923Z,36.53
2023-05-10T23:48:58.361Z,36.55
2023-05-10T23:51:26.103Z,36.60
2023-05-10T23:53:53.454Z,36.80
2023-05-10T23:56:22.128Z,36.19
2023-05-10T23:58:49.809Z,36.27
